Time;durP1;ratioP1;P1;durP2;ratioP2;P2;SDS_P1;SDS_P2;PMS_P1;PMS_P2;Temp;Humidity;BMP_temperature;BMP_pressure;BME280_temperature;BME280_humidity;BME280_pressure;Samples;Min_cycle;Max_cycle;Signal;HPM_P1;HPM_P2
2023/01/20 00:01:10;;;;;;;12.43;6.72;;;;;;;-0.43;71.88;95486.84;5038369;28;20053;-78
2023/01/20 00:03:38;;;;;;;15.02;7.22;;;;;;;-0.46;72.29;95491.94;5025107;28;20644;-79
2023/01/20 00:06:05;;;;;;;14.18;6.93;;;;;;;-0.46;72.11;95498.09;5025926;28;20042;-79
2023/01/20 00:08:32;;;;;;;13.75;6.55;;;;;;;-0.48;72.13;95489.53;5023321;28;20049;-77
2023/01/20 00:10:58;;;;;;;12.18;6.65;;;;;;;-0.47;71.85;95496.50;5030496;28;20057;-75
2023/01/20 00:13:25;;;;;;;13.10;6.85;;;;;;;-0.43;72.12;95494.88;5028713;28;20052;-78
2023/01/20 00:15:51;;;;;;;12.23;6.65;;;;;;;-0.43;72.01;95497.53;5024885;28;20045;-77
2023/01/20 00:18:18;;;;;;;11.45;6.65;;;;;;;-0.42;72.14;95499.13;5027472;28;20046;-79
2023/01/20 00:20:46;;;;;;;11.77;6.68;;;;;;;-0.41;72.03;95495.41;5030902;28;20041;-76
2023/01/20 00:23:12;;;;;;;13.40;6.55;;;;;;;-0.40;71.90;95505.03;5030371;28;20069;-77
2023/01/20 00:25:39;;;;;;;12.00;6.28;;;;;;;-0.39;72.26;95503.97;5030625;28;20045;-76
2023/01/20 00:28:05;;;;;;;11.13;6.18;;;;;;;-0.46;71.71;95503.44;5023289;28;20046;-81
2023/01/20 00:30:32;;;;;;;10.73;6.40;;;;;;;-0.46;71.30;95511.47;5034386;28;20068;-79
2023/01/20 00:32:59;;;;;;;13.63;6.50;;;;;;;-0.47;71.81;95514.41;5029600;28;20088;-76
2023/01/20 00:35:25;;;;;;;10.25;6.20;;;;;;;-0.55;72.03;95515.75;5033973;28;20037;-76
2023/01/20 00:37:53;;;;;;;11.05;6.07;;;;;;;-0.61;71.93;95519.50;5041897;28;20037;-81
2023/01/20 00:40:20;;;;;;;11.07;5.97;;;;;;;-0.61;72.19;95516.81;5034300;28;20548;-77
2023/01/20 00:42:46;;;;;;;10.63;6.35;;;;;;;-0.58;72.26;95510.91;5031175;28;20525;-80
2023/01/20 00:45:13;;;;;;;10.13;5.55;;;;;;;-0.60;72.13;95516.53;5032798;28;20049;-77
2023/01/20 00:47:39;;;;;;;10.27;5.82;;;;;;;-0.64;72.02;95522.69;5039507;28;20045;-79
2023/01/20 00:50:06;;;;;;;9.45;5.53;;;;;;;-0.64;71.96;95526.16;5048553;28;20041;-77
2023/01/20 00:52:33;;;;;;;12.90;6.35;;;;;;;-0.63;72.35;95526.97;5048257;28;20049;-77
2023/01/20 00:55:01;;;;;;;10.60;5.93;;;;;;;-0.67;72.48;95525.91;5046949;28;20041;-76
2023/01/20 00:57:27;;;;;;;10.85;6.05;;;;;;;-0.65;72.35;95526.44;5048319;28;20042;-77
2023/01/20 00:59:53;;;;;;;11.43;6.22;;;;;;;-0.72;72.03;95531.25;5050167;28;20141;-80
2023/01/20 01:02:20;;;;;;;10.20;5.43;;;;;;;-0.77;71.66;95536.59;5044618;28;20050;-77
2023/01/20 01:04:49;;;;;;;12.73;6.18;;;;;;;-0.78;71.36;95533.13;5047066;28;20056;-77
2023/01/20 01:07:15;;;;;;;12.18;6.45;;;;;;;-0.81;71.35;95529.09;5043529;28;20056;-79
2023/01/20 01:09:42;;;;;;;9.82;5.57;;;;;;;-0.87;70.94;95540.88;5040733;28;20045;-80
2023/01/20 01:12:10;;;;;;;9.45;6.00;;;;;;;-1.22;72.26;95543.47;5035000;28;20053;-81
2023/01/20 01:14:36;;;;;;;12.65;6.35;;;;;;;-1.05;71.94;95541.34;5032152;28;20038;-79
2023/01/20 01:17:03;;;;;;;9.00;5.53;;;;;;;-1.03;71.73;95547.25;5032603;28;20049;-79
2023/01/20 01:19:29;;;;;;;12.85;5.90;;;;;;;-1.02;71.90;95545.38;5032225;28;20045;-77
2023/01/20 01:21:56;;;;;;;9.70;5.78;;;;;;;-1.10;72.00;95546.69;5032786;28;20053;-79
2023/01/20 01:24:22;;;;;;;10.48;6.00;;;;;;;-1.03;72.25;95539.25;5031052;28;20057;-79
2023/01/20 01:26:49;;;;;;;8.73;5.60;;;;;;;-0.98;72.13;95547.25;5028019;28;20045;-80
2023/01/20 01:29:17;;;;;;;11.32;6.30;;;;;;;-0.97;72.07;95546.19;5026335;28;20080;-79
2023/01/20 01:31:43;;;;;;;11.63;5.72;;;;;;;-1.02;72.05;95548.84;5032891;28;20041;-77
2023/01/20 01:34:09;;;;;;;12.57;6.50;;;;;;;-1.07;72.32;95548.84;5030812;28;20057;-79
2023/01/20 01:36:36;;;;;;;11.55;6.15;;;;;;;-1.24;73.01;95550.94;5029763;28;20054;-79
2023/01/20 01:39:03;;;;;;;11.32;6.43;;;;;;;-1.54;74.40;95552.44;5029300;28;20052;-80
2023/01/20 01:41:29;;;;;;;10.73;5.60;;;;;;;-1.43;74.44;95548.72;5031704;28;20052;-79
2023/01/20 01:44:01;;;;;;;11.60;5.85;;;;;;;-1.61;75.10;95558.00;5020760;28;20045;-77
2023/01/20 01:46:29;;;;;;;9.93;6.13;;;;;;;-1.47;74.69;95552.19;5023984;28;20049;-79
2023/01/20 01:48:58;;;;;;;10.13;5.47;;;;;;;-1.52;74.68;95544.94;5025164;28;20046;-78
2023/01/20 01:51:28;;;;;;;9.05;5.82;;;;;;;-1.49;74.48;95549.78;5031783;28;20041;-78
2023/01/20 01:53:57;;;;;;;12.23;5.88;;;;;;;-1.53;74.66;95543.34;5031793;28;20049;-78
2023/01/20 01:56:25;;;;;;;11.88;6.00;;;;;;;-1.64;74.99;95541.72;5029139;28;20521;-79
2023/01/20 01:58:54;;;;;;;10.13;5.68;;;;;;;-1.55;74.98;95545.50;5029633;28;20045;-80
2023/01/20 02:01:21;;;;;;;10.52;5.78;;;;;;;-1.57;74.77;95552.94;5024845;28;20037;-78
2023/01/20 02:03:56;;;;;;;10.43;5.72;;;;;;;-1.57;74.86;95550.28;5031734;28;20048;-79
2023/01/20 02:06:25;;;;;;;12.27;5.60;;;;;;;-1.70;75.13;95548.09;5031130;28;20076;-79
2023/01/20 02:08:52;;;;;;;11.45;5.60;;;;;;;-1.70;75.11;95545.41;5025575;28;20053;-80
2023/01/20 02:11:19;;;;;;;10.57;6.10;;;;;;;-1.93;75.55;95554.63;5029985;28;20057;-80
2023/01/20 02:13:45;;;;;;;10.02;5.97;;;;;;;-1.83;75.15;95554.69;5030743;28;20048;-79
2023/01/20 02:16:17;;;;;;;9.05;6.00;;;;;;;-1.89;75.19;95556.53;5030284;28;20052;-77
2023/01/20 02:19:00;;;;;;;11.13;5.18;;;;;;;-1.85;75.03;95562.16;5021781;28;20045;-77
2023/01/20 02:21:59;;;;;;;9.57;5.68;;;;;;;-1.81;75.17;95567.78;5031450;28;20120;-80
2023/01/20 02:25:04;;;;;;;10.23;5.72;;;;;;;-1.82;75.68;95560.84;5020516;28;20484;-78
2023/01/20 02:27:49;;;;;;;13.68;6.88;;;;;;;-1.84;75.62;95569.91;5023163;28;20120;-79
2023/01/20 02:30:40;;;;;;;9.77;5.85;;;;;;;-1.81;75.72;95563.25;5030027;28;20045;-78
2023/01/20 02:33:12;;;;;;;11.77;5.88;;;;;;;-1.78;76.15;95567.25;5030518;28;20067;-79
2023/01/20 02:35:45;;;;;;;11.35;5.35;;;;;;;-1.79;76.26;95563.00;5031222;28;20042;-81
2023/01/20 02:38:20;;;;;;;8.02;4.65;;;;;;;-1.79;76.70;95565.66;5030239;28;20053;-80
2023/01/20 02:40:54;;;;;;;14.13;5.75;;;;;;;-1.78;76.61;95577.94;5022572;28;20502;-78
2023/01/20 02:43:27;;;;;;;11.13;5.38;;;;;;;-1.82;76.67;95577.66;5023540;28;20052;-80
2023/01/20 02:46:01;;;;;;;9.63;5.45;;;;;;;-1.86;76.51;95577.38;5030339;28;20045;-79
2023/01/20 02:48:35;;;;;;;9.73;5.50;;;;;;;-1.83;76.07;95576.03;5022143;28;20045;-78
2023/01/20 02:51:07;;;;;;;11.20;5.43;;;;;;;-1.82;75.67;95571.53;5035573;28;20071;-82
2023/01/20 02:53:40;;;;;;;9.90;5.68;;;;;;;-1.80;75.70;95574.72;5034371;28;20088;-79
2023/01/20 02:56:09;;;;;;;9.85;5.35;;;;;;;-1.82;75.48;95580.34;5030078;28;20049;-76
2023/01/20 02:58:42;;;;;;;9.55;5.50;;;;;;;-1.79;75.10;95581.66;5026926;28;20072;-78
2023/01/20 03:01:12;;;;;;;8.90;5.55;;;;;;;-1.84;74.73;95588.56;5022781;28;20049;-78
2023/01/20 03:03:45;;;;;;;8.25;5.20;;;;;;;-1.82;74.45;95584.88;5030215;28;20522;-76
2023/01/20 03:06:16;;;;;;;13.85;5.38;;;;;;;-1.82;74.02;95582.19;5029945;28;20053;-78
2023/01/20 03:08:44;;;;;;;7.28;4.70;;;;;;;-1.80;74.12;95590.75;5034553;28;20053;-80
2023/01/20 03:11:11;;;;;;;9.82;5.00;;;;;;;-1.80;73.75;95585.41;5036527;28;20049;-85
2023/01/20 03:13:44;;;;;;;9.45;5.03;;;;;;;-1.78;74.21;95593.94;5034649;28;20057;-79
2023/01/20 03:16:14;;;;;;;9.43;5.75;;;;;;;-1.80;74.37;95590.75;5035447;28;20045;-77
2023/01/20 03:18:42;;;;;;;10.57;5.38;;;;;;;-1.81;74.17;95594.47;5028705;28;20041;-81
2023/01/20 03:21:10;;;;;;;7.97;5.03;;;;;;;-1.77;73.93;95603.59;5031265;28;20502;-80
2023/01/20 03:23:41;;;;;;;8.18;4.82;;;;;;;-1.75;73.70;95607.59;5026900;28;20052;-81
2023/01/20 03:26:10;;;;;;;8.57;4.80;;;;;;;-1.68;74.12;95604.69;5037883;28;20050;-81
2023/01/20 03:28:36;;;;;;;9.55;5.45;;;;;;;-1.62;73.89;95603.63;5033927;28;20120;-79
2023/01/20 03:31:10;;;;;;;9.13;4.82;;;;;;;-1.57;73.93;95609.00;5027485;28;20053;-77
2023/01/20 03:33:37;;;;;;;12.10;5.82;;;;;;;-1.52;73.96;95609.03;5037547;28;20064;-81
2023/01/20 03:36:06;;;;;;;10.52;5.55;;;;;;;-1.48;74.42;95617.34;5032137;28;20057;-82
2023/01/20 03:38:33;;;;;;;9.73;5.18;;;;;;;-1.46;73.99;95620.53;5034870;28;20460;-79
2023/01/20 03:41:04;;;;;;;10.48;5.88;;;;;;;-1.42;73.87;95618.97;5035207;28;20041;-77
2023/01/20 03:43:40;;;;;;;9.38;5.15;;;;;;;-1.44;73.97;95621.91;5030690;28;20490;-80
2023/01/20 03:46:15;;;;;;;9.05;5.38;;;;;;;-1.46;73.81;95624.03;5034282;28;20062;-78
2023/01/20 03:48:47;;;;;;;9.40;5.40;;;;;;;-1.44;73.69;95629.13;5034106;28;20048;-79
2023/01/20 03:51:20;;;;;;;8.43;5.13;;;;;;;-1.42;73.90;95624.31;5033877;28;20045;-80
2023/01/20 03:53:52;;;;;;;9.07;4.95;;;;;;;-1.42;73.76;95635.78;5034932;28;20045;-80
2023/01/20 03:56:24;;;;;;;9.45;5.22;;;;;;;-1.40;73.38;95633.69;5034039;28;20050;-78
2023/01/20 03:58:53;;;;;;;9.53;5.10;;;;;;;-1.37;73.20;95632.34;5030041;28;20063;-79
2023/01/20 04:01:24;;;;;;;8.00;4.90;;;;;;;-1.33;73.58;95639.56;5037210;28;20739;-79
2023/01/20 04:03:53;;;;;;;10.25;5.28;;;;;;;-1.33;73.61;95634.22;5040844;28;20041;-80
2023/01/20 04:06:25;;;;;;;10.13;6.05;;;;;;;-1.33;73.88;95631.56;5040304;28;20053;-82
2023/01/20 04:08:55;;;;;;;9.27;5.82;;;;;;;-1.29;74.23;95634.53;5035556;28;20046;-81
2023/01/20 04:11:22;;;;;;;11.63;6.13;;;;;;;-1.29;74.08;95637.19;5040823;28;20053;-82
2023/01/20 04:13:50;;;;;;;8.48;5.50;;;;;;;-1.28;74.01;95643.34;5041983;28;20049;-83
2023/01/20 04:16:18;;;;;;;9.80;5.28;;;;;;;-1.40;73.14;95641.69;5040206;28;20060;-83
2023/01/20 04:18:48;;;;;;;11.27;5.45;;;;;;;-1.37;72.73;95638.47;5033681;28;20539;-83
2023/01/20 04:21:23;;;;;;;8.48;5.43;;;;;;;-1.37;72.84;95643.03;5039599;28;20053;-84
2023/01/20 04:23:54;;;;;;;8.82;5.70;;;;;;;-1.40;73.13;95644.34;5041595;28;20049;-83
2023/01/20 04:26:21;;;;;;;11.65;5.63;;;;;;;-1.48;73.07;95642.16;5040448;28;20049;-79
2023/01/20 04:28:47;;;;;;;9.45;5.47;;;;;;;-1.47;73.41;95649.09;5032720;28;20049;-79
2023/01/20 04:31:14;;;;;;;9.32;5.55;;;;;;;-1.44;73.84;95650.47;5038261;28;20041;-78
2023/01/20 04:33:41;;;;;;;9.43;4.97;;;;;;;-1.45;74.19;95652.34;5039096;28;20391;-79
2023/01/20 04:36:08;;;;;;;9.90;5.50;;;;;;;-1.44;74.04;95653.94;5037277;28;20037;-81
2023/01/20 04:38:34;;;;;;;11.15;6.38;;;;;;;-1.44;74.24;95661.97;5038099;28;20048;-81
2023/01/20 04:41:02;;;;;;;12.23;5.63;;;;;;;-1.42;74.27;95661.69;5034022;28;20057;-78
2023/01/20 04:43:28;;;;;;;10.30;5.45;;;;;;;-1.42;74.35;95659.81;5038352;28;20048;-78
2023/01/20 04:45:55;;;;;;;9.63;5.50;;;;;;;-1.41;74.58;95664.13;5039593;28;20038;-81
2023/01/20 04:48:21;;;;;;;8.68;5.15;;;;;;;-1.41;74.57;95665.97;5036680;28;20052;-79
2023/01/20 04:50:48;;;;;;;9.02;5.53;;;;;;;-1.42;74.90;95673.16;5037992;28;20057;-79
2023/01/20 04:53:17;;;;;;;10.65;5.40;;;;;;;-1.44;74.97;95674.50;5034972;28;20510;-79
2023/01/20 04:55:44;;;;;;;11.95;6.45;;;;;;;-1.41;75.24;95674.81;5038663;28;20041;-80
2023/01/20 04:58:12;;;;;;;10.77;6.55;;;;;;;-1.35;75.83;95675.63;5033376;28;20056;-80
2023/01/20 05:00:39;;;;;;;10.98;6.25;;;;;;;-1.30;76.28;95682.88;5038175;28;20048;-80
2023/01/20 05:03:06;;;;;;;11.05;6.28;;;;;;;-1.28;76.36;95686.88;5035222;28;20061;-80
2023/01/20 05:05:33;;;;;;;12.25;6.38;;;;;;;-1.29;76.04;95687.94;5031462;28;20053;-78
2023/01/20 05:07:59;;;;;;;12.73;6.40;;;;;;;-1.29;75.69;95687.16;5036488;28;20041;-80
2023/01/20 05:10:26;;;;;;;10.50;5.82;;;;;;;-1.30;75.47;95690.88;5037000;28;20052;-82
2023/01/20 05:12:52;;;;;;;11.88;6.05;;;;;;;-1.28;75.47;95694.09;5037494;28;20042;-81
2023/01/20 05:15:20;;;;;;;13.73;6.53;;;;;;;-1.29;75.62;95698.63;5030397;28;20801;-79
2023/01/20 05:17:46;;;;;;;10.65;6.07;;;;;;;-1.28;75.85;95707.44;5029544;28;20048;-84
2023/01/20 05:20:13;;;;;;;10.45;6.22;;;;;;;-1.27;75.64;95706.38;5037085;28;20065;-78
2023/01/20 05:22:40;;;;;;;9.77;5.85;;;;;;;-1.29;75.67;95709.31;5031234;28;20072;-79
2023/01/20 05:25:07;;;;;;;12.02;6.03;;;;;;;-1.31;75.65;95714.09;5030382;28;20049;-78
2023/01/20 05:27:34;;;;;;;11.93;6.28;;;;;;;-1.32;75.77;95718.63;5031280;28;20054;-80
2023/01/20 05:30:01;;;;;;;11.05;6.78;;;;;;;-1.41;75.87;95716.69;5033794;28;20045;-81
2023/01/20 05:32:29;;;;;;;11.13;6.32;;;;;;;-1.44;75.43;95726.03;5032761;28;20048;-78
2023/01/20 05:34:55;;;;;;;10.32;5.75;;;;;;;-1.47;75.49;95723.88;5032273;28;20056;-78
2023/01/20 05:37:22;;;;;;;13.40;6.18;;;;;;;-1.62;75.83;95726.44;5029223;28;20065;-75
2023/01/20 05:39:48;;;;;;;10.85;6.30;;;;;;;-1.73;76.32;95730.09;5026438;28;20053;-77
2023/01/20 05:42:15;;;;;;;10.45;6.38;;;;;;;-1.66;76.04;95730.72;5037490;28;20046;-81
2023/01/20 05:44:42;;;;;;;10.63;6.32;;;;;;;-1.67;76.41;95731.75;5034216;28;20568;-80
2023/01/20 05:47:08;;;;;;;9.98;6.35;;;;;;;-1.66;76.43;95739.50;5034906;28;20075;-80
2023/01/20 05:49:36;;;;;;;14.32;6.85;;;;;;;-1.74;76.83;95733.84;5031780;28;20234;-81
2023/01/20 05:52:03;;;;;;;17.25;7.78;;;;;;;-1.78;76.95;95738.06;5034565;28;20049;-82
2023/01/20 05:54:29;;;;;;;14.27;7.15;;;;;;;-1.73;76.72;95735.44;5042872;28;20045;-80
2023/01/20 05:56:56;;;;;;;13.93;6.93;;;;;;;-1.67;76.62;95737.09;5045667;28;20061;-77
2023/01/20 05:59:23;;;;;;;12.63;7.05;;;;;;;-1.65;76.74;95748.31;5041434;28;20053;-86
2023/01/20 06:01:49;;;;;;;13.90;6.50;;;;;;;-1.62;76.58;95747.78;5046900;28;20037;-87
2023/01/20 06:04:16;;;;;;;13.20;7.28;;;;;;;-1.75;76.93;95748.25;5042431;28;20054;-90
2023/01/20 06:06:44;;;;;;;13.30;6.65;;;;;;;-1.80;77.41;95757.00;5043155;28;20049;-91
2023/01/20 06:09:10;;;;;;;13.75;7.30;;;;;;;-1.93;78.18;95752.91;5044219;28;20049;-88
2023/01/20 06:11:37;;;;;;;12.65;6.80;;;;;;;-1.99;78.66;95758.44;5042942;28;20076;-89
2023/01/20 06:14:03;;;;;;;12.50;7.40;;;;;;;-2.01;79.18;95758.69;5040860;28;20049;-84
2023/01/20 06:16:30;;;;;;;12.75;6.53;;;;;;;-2.06;79.25;95763.97;5042801;28;20041;-87
2023/01/20 06:18:56;;;;;;;13.05;7.93;;;;;;;-1.95;79.14;95755.00;5038766;28;20056;-79
2023/01/20 06:21:23;;;;;;;14.43;7.30;;;;;;;-2.05;79.23;95762.91;5035010;28;20041;-83
2023/01/20 06:23:52;;;;;;;15.55;7.57;;;;;;;-2.24;80.13;95765.16;5037294;28;20541;-82
2023/01/20 06:26:19;;;;;;;12.73;7.05;;;;;;;-2.29;80.82;95769.63;5035759;28;20053;-80
2023/01/20 06:28:45;;;;;;;13.50;7.93;;;;;;;-2.37;81.49;95769.00;5034179;28;20049;-80
2023/01/20 06:31:14;;;;;;;14.80;7.93;;;;;;;-2.31;81.48;95766.41;5034946;28;20049;-83
2023/01/20 06:33:40;;;;;;;11.95;7.05;;;;;;;-2.13;80.69;95772.19;5035559;28;20068;-80
2023/01/20 06:36:09;;;;;;;17.02;8.40;;;;;;;-2.44;81.83;95772.94;5035288;28;20057;-83
2023/01/20 06:38:36;;;;;;;14.52;8.82;;;;;;;-2.62;83.10;95779.38;5036073;28;20086;-85
2023/01/20 06:41:06;;;;;;;16.55;9.15;;;;;;;-2.49;83.32;95778.22;5035861;28;20457;-85
2023/01/20 06:43:34;;;;;;;15.60;8.40;;;;;;;-2.52;83.76;95787.50;5036505;28;20052;-83
2023/01/20 06:46:02;;;;;;;13.32;7.68;;;;;;;-2.63;84.61;95791.09;5036590;28;20056;-81
2023/01/20 06:48:29;;;;;;;21.85;10.18;;;;;;;-2.68;85.36;95793.69;5036191;28;20457;-84
2023/01/20 06:51:00;;;;;;;17.45;9.10;;;;;;;-2.69;85.23;95792.91;5036736;28;20468;-82
2023/01/20 06:53:26;;;;;;;17.23;9.63;;;;;;;-2.67;86.00;95797.97;5031651;28;20416;-83
2023/01/20 06:55:54;;;;;;;14.95;9.15;;;;;;;-2.58;86.14;95799.16;5039942;28;20041;-85
2023/01/20 06:58:23;;;;;;;18.95;9.68;;;;;;;-2.39;85.40;95800.47;5038018;28;20048;-83
2023/01/20 07:00:50;;;;;;;17.20;9.70;;;;;;;-2.40;85.27;95806.06;5042605;28;20045;-82
2023/01/20 07:03:16;;;;;;;15.88;8.70;;;;;;;-2.37;85.20;95817.00;5038520;28;20061;-85
2023/01/20 07:05:43;;;;;;;17.63;9.48;;;;;;;-2.37;85.27;95814.34;5035127;28;20064;-87
2023/01/20 07:08:10;;;;;;;16.23;9.75;;;;;;;-2.34;85.39;95817.56;5034298;28;20053;-86
2023/01/20 07:10:37;;;;;;;15.65;9.75;;;;;;;-2.23;85.36;95821.97;5035303;28;20052;-87
2023/01/20 07:13:03;;;;;;;15.13;8.75;;;;;;;-2.18;85.16;95830.81;5034832;28;20603;-87
2023/01/20 07:15:31;;;;;;;17.60;9.25;;;;;;;-2.02;84.63;95823.78;5035017;28;20037;-87
2023/01/20 07:17:58;;;;;;;15.73;9.63;;;;;;;-2.17;84.95;95831.63;5034134;28;20045;-85
2023/01/20 07:20:24;;;;;;;19.83;10.20;;;;;;;-2.03;84.83;95832.84;5026214;28;20042;-86
2023/01/20 07:22:51;;;;;;;16.85;9.93;;;;;;;-1.85;84.39;95834.34;5034118;28;20132;-81
2023/01/20 07:25:17;;;;;;;14.55;9.43;;;;;;;-1.71;84.08;95830.22;5034642;28;20057;-87
2023/01/20 07:27:44;;;;;;;15.02;8.98;;;;;;;-1.60;83.59;95833.78;5033763;28;20057;-87
2023/01/20 07:30:11;;;;;;;17.60;10.20;;;;;;;-1.55;82.92;95836.50;5034008;28;20052;-85
2023/01/20 07:32:39;;;;;;;17.10;9.38;;;;;;;-1.85;82.90;95840.50;5034898;28;20429;-84
2023/01/20 07:35:06;;;;;;;17.08;9.30;;;;;;;-2.06;84.50;95854.69;5034251;28;20049;-85
2023/01/20 07:37:32;;;;;;;15.07;9.02;;;;;;;-1.94;84.56;95857.22;5034173;28;20494;-84
2023/01/20 07:39:59;;;;;;;17.60;10.50;;;;;;;-2.18;85.72;95856.69;5034697;28;20438;-81
2023/01/20 07:42:25;;;;;;;19.30;10.77;;;;;;;-2.06;85.59;95860.03;5033825;28;20049;-85
2023/01/20 07:44:52;;;;;;;19.17;10.55;;;;;;;-2.15;85.92;95861.50;5034571;28;20057;-86
2023/01/20 07:47:18;;;;;;;19.13;11.15;;;;;;;-1.97;85.85;95868.41;5033841;28;20046;-84
2023/01/20 07:49:46;;;;;;;20.33;10.77;;;;;;;-1.94;85.50;95878.56;5034323;28;20049;-87
2023/01/20 07:52:12;;;;;;;19.77;10.75;;;;;;;-1.89;85.47;95870.59;5034166;28;20672;-84
2023/01/20 07:54:39;;;;;;;20.95;10.60;;;;;;;-1.85;85.12;95877.06;5034985;28;20049;-85
2023/01/20 07:57:07;;;;;;;20.83;11.60;;;;;;;-1.76;85.08;95877.44;5031974;28;20045;-84
2023/01/20 07:59:34;;;;;;;16.98;10.05;;;;;;;-1.52;84.02;95886.72;5033955;28;20080;-86
2023/01/20 08:02:00;;;;;;;18.90;10.25;;;;;;;-1.43;83.44;95885.22;5033561;28;20052;-87
2023/01/20 08:04:27;;;;;;;17.90;10.35;;;;;;;-1.38;83.51;95885.25;5034226;28;20768;-86
2023/01/20 08:06:55;;;;;;;17.33;10.63;;;;;;;-1.73;84.34;95887.59;5034169;28;20391;-87
2023/01/20 08:09:21;;;;;;;20.42;11.25;;;;;;;-1.75;85.16;95893.19;5033619;28;20045;-84
2023/01/20 08:11:48;;;;;;;22.45;11.90;;;;;;;-1.78;85.86;95898.22;5035596;28;20041;-86
2023/01/20 08:14:17;;;;;;;19.25;12.00;;;;;;;-1.95;87.23;95901.75;5033291;28;20057;-88
2023/01/20 08:16:44;;;;;;;20.52;11.13;;;;;;;-1.76;87.17;95906.78;5033737;28;20046;-86
2023/01/20 08:19:10;;;;;;;19.20;11.57;;;;;;;-1.58;86.69;95903.75;5032434;28;20049;-88
2023/01/20 08:21:37;;;;;;;19.30;11.05;;;;;;;-1.42;85.73;95907.38;5034488;28;20053;-85
2023/01/20 08:24:05;;;;;;;19.65;11.43;;;;;;;-1.55;85.90;95911.28;5032614;28;20052;-86
2023/01/20 08:26:33;;;;;;;19.17;11.40;;;;;;;-1.68;86.78;95914.31;5033226;28;20045;-88
2023/01/20 08:29:03;;;;;;;20.45;11.75;;;;;;;-1.43;86.05;95921.78;5034705;22;20512;-86
2023/01/20 08:31:29;;;;;;;20.95;12.43;;;;;;;-1.47;86.15;95918.81;5049928;28;20041;-90
2023/01/20 08:33:56;;;;;;;21.48;12.20;;;;;;;-1.39;85.62;95921.03;5051779;28;20045;-87
2023/01/20 08:36:26;;;;;;;22.00;11.80;;;;;;;-1.22;85.12;95928.13;5050852;28;20051;-89
2023/01/20 08:38:54;;;;;;;22.65;12.80;;;;;;;-1.73;86.02;95928.44;5051823;28;20033;-86
2023/01/20 08:41:25;;;;;;;19.05;11.85;;;;;;;-1.50;86.55;95927.34;5052373;28;20128;-86
2023/01/20 08:43:51;;;;;;;19.92;12.02;;;;;;;-1.37;85.82;95932.25;5053642;28;20049;-91
2023/01/20 08:46:19;;;;;;;22.42;12.85;;;;;;;-1.28;85.70;95935.28;5055116;28;20048;-88
2023/01/20 08:48:47;;;;;;;21.23;12.18;;;;;;;-1.27;84.71;95942.25;5054158;28;20044;-85
2023/01/20 08:51:16;;;;;;;23.33;12.57;;;;;;;-1.35;84.69;95946.19;5055085;28;20095;-90
2023/01/20 08:53:43;;;;;;;20.27;12.00;;;;;;;-1.51;85.12;95951.59;5055176;28;20511;-90
2023/01/20 08:56:10;;;;;;;21.90;12.50;;;;;;;-1.49;85.73;95958.31;5052866;28;20053;-86
2023/01/20 08:58:39;;;;;;;22.90;12.27;;;;;;;-1.44;85.34;95957.56;5044525;28;20045;-82
2023/01/20 09:01:08;;;;;;;23.42;13.27;;;;;;;-1.18;84.37;95951.41;5042001;28;20040;-85
2023/01/20 09:03:35;;;;;;;22.55;12.85;;;;;;;-1.36;85.04;95952.59;5042800;28;20053;-89
2023/01/20 09:06:02;;;;;;;21.52;12.32;;;;;;;-1.24;85.77;95952.44;5035000;28;20060;-84
2023/01/20 09:08:29;;;;;;;24.58;13.60;;;;;;;-1.27;84.98;95965.47;5041722;28;20116;-83
2023/01/20 09:11:01;;;;;;;20.10;11.75;;;;;;;-1.50;85.39;95964.72;5033444;28;20030;-91
2023/01/20 09:13:28;;;;;;;25.40;13.05;;;;;;;-1.50;86.15;95967.41;5033065;28;20034;-83
2023/01/20 09:15:56;;;;;;;19.38;12.35;;;;;;;-1.27;86.23;95968.16;5041227;28;20051;-85
2023/01/20 09:18:22;;;;;;;22.77;13.57;;;;;;;-1.07;85.04;95969.16;5041083;28;20052;-83
2023/01/20 09:20:49;;;;;;;20.48;12.13;;;;;;;-1.08;84.38;95972.09;5042165;28;20424;-88
2023/01/20 09:23:16;;;;;;;19.83;11.73;;;;;;;-0.91;83.43;95971.97;5043553;28;20049;-86
2023/01/20 09:25:43;;;;;;;20.42;11.20;;;;;;;-0.79;82.24;95975.25;5053247;28;20037;-84
2023/01/20 09:28:10;;;;;;;22.15;12.20;;;;;;;-1.11;82.93;95972.59;5051313;28;20048;-87
2023/01/20 09:30:37;;;;;;;20.60;11.25;;;;;;;-1.29;84.45;95980.97;5044995;28;20056;-88
2023/01/20 09:33:05;;;;;;;20.65;12.25;;;;;;;-1.09;84.15;95981.97;5043534;28;20048;-84
2023/01/20 09:35:31;;;;;;;22.98;11.60;;;;;;;-1.33;84.42;95977.97;5041685;28;20069;-87
2023/01/20 09:46:40;;;;;;;19.10;10.95;;;;;;;-0.87;83.04;96000.59;5018284;28;20569;-88
2023/01/20 09:55:02;;;;;;;20.30;11.48;;;;;;;-0.75;82.17;96007.66;5032142;28;20056;-88
2023/01/20 09:57:33;;;;;;;20.00;11.77;;;;;;;-0.70;80.15;96005.03;5039985;28;20045;-88
2023/01/20 10:00:05;;;;;;;16.48;9.85;;;;;;;-0.30;79.75;96005.31;5041021;28;20437;-84
2023/01/20 10:02:35;;;;;;;20.30;11.18;;;;;;;-0.25;78.66;96003.75;5040905;28;20041;-84
2023/01/20 10:05:11;;;;;;;18.05;10.57;;;;;;;-0.32;79.42;96007.44;5040717;28;20463;-81
2023/01/20 10:07:43;;;;;;;18.30;10.60;;;;;;;0.07;78.57;96006.34;5046390;28;20045;-81
2023/01/20 10:10:18;;;;;;;15.32;10.13;;;;;;;0.05;76.37;96005.78;5042622;28;20057;-89
2023/01/20 10:12:50;;;;;;;18.63;10.10;;;;;;;0.04;78.13;96004.97;5040761;28;20409;-83
2023/01/20 10:15:20;;;;;;;24.30;10.73;;;;;;;-0.01;77.01;96005.75;5042296;28;20056;-86
2023/01/20 10:17:52;;;;;;;20.05;10.48;;;;;;;-0.40;78.25;96010.59;5037536;28;20150;-85
2023/01/20 10:20:30;;;;;;;17.88;11.02;;;;;;;-0.16;78.39;96015.56;5039808;28;20061;-86
2023/01/20 10:23:03;;;;;;;21.00;10.73;;;;;;;-0.30;78.48;96001.84;5040418;28;20050;-87
2023/01/20 10:25:34;;;;;;;20.67;11.55;;;;;;;-0.48;78.99;96003.03;5036633;28;20052;-87
2023/01/20 10:28:10;;;;;;;21.75;11.32;;;;;;;-0.31;79.40;96011.75;5050891;28;20440;-85
2023/01/20 10:30:37;;;;;;;21.52;11.52;;;;;;;-0.29;79.01;96014.16;5026436;28;20052;-85
2023/01/20 10:33:09;;;;;;;22.15;11.30;;;;;;;-0.21;78.58;96007.50;5024868;28;20088;-84
2023/01/20 10:35:42;;;;;;;17.87;11.33;;;;;;;-0.32;78.01;96004.75;5037381;28;20045;-85
2023/01/20 10:38:30;;;;;;;25.80;13.05;;;;;;;-0.47;80.51;96004.69;5049318;28;20283;-84
2023/01/20 10:41:02;;;;;;;24.85;12.52;;;;;;;-0.60;79.91;96005.09;5040208;28;20048;-90
2023/01/20 10:43:30;;;;;;;18.98;11.98;;;;;;;-0.45;80.65;96009.75;5018229;28;20052;-83
2023/01/20 10:46:15;;;;;;;20.80;11.75;;;;;;;-0.25;80.91;96006.44;5034907;28;20398;-83
2023/01/20 10:48:58;;;;;;;21.65;12.20;;;;;;;-0.37;78.92;95999.38;5039581;28;20081;-81
2023/01/20 10:51:38;;;;;;;18.70;11.20;;;;;;;-0.27;79.25;96007.47;5042712;28;20048;-80
2023/01/20 10:54:14;;;;;;;20.80;11.75;;;;;;;-0.26;77.78;96000.28;5042702;28;20493;-80
2023/01/20 10:56:44;;;;;;;21.10;11.07;;;;;;;-0.20;77.58;95998.44;5046104;28;20068;-85
2023/01/20 10:59:15;;;;;;;17.58;10.55;;;;;;;-0.29;77.49;95995.44;5032063;28;20055;-85
2023/01/20 11:01:42;;;;;;;17.92;10.15;;;;;;;-0.41;78.11;96003.66;5037041;28;20045;-89
2023/01/20 11:04:18;;;;;;;20.67;12.10;;;;;;;-0.42;77.26;95999.34;5042033;28;20045;-84
2023/01/20 11:06:48;;;;;;;19.00;11.35;;;;;;;-0.41;78.11;95998.31;5045862;28;20045;-89
2023/01/20 11:09:23;;;;;;;27.55;10.85;;;;;;;-0.27;78.81;95996.78;5038702;28;20048;-85
2023/01/20 11:11:51;;;;;;;17.30;10.57;;;;;;;0.09;78.09;96002.34;5031588;28;20126;-84
2023/01/20 11:14:17;;;;;;;19.77;10.52;;;;;;;0.20;76.46;96004.00;5039813;28;20052;-90
2023/01/20 11:16:47;;;;;;;16.88;10.70;;;;;;;-0.04;76.27;96005.50;5038671;28;20053;-89
2023/01/20 11:19:13;;;;;;;16.48;9.70;;;;;;;0.34;77.28;96008.88;5033499;28;20047;-83
2023/01/20 11:21:40;;;;;;;17.15;9.75;;;;;;;-0.04;78.06;96008.16;5037689;28;20049;-88
2023/01/20 11:24:32;;;;;;;18.15;10.23;;;;;;;0.21;76.91;96010.97;5032072;28;20125;-86
2023/01/20 11:27:04;;;;;;;16.55;10.25;;;;;;;0.24;78.29;96010.44;5041117;28;20057;-84
2023/01/20 11:29:37;;;;;;;17.05;10.52;;;;;;;0.29;77.09;96008.88;5039454;28;20521;-91
2023/01/20 11:32:04;;;;;;;18.42;10.27;;;;;;;0.16;78.30;96005.59;5030538;28;20494;-85
2023/01/20 11:34:32;;;;;;;18.77;10.82;;;;;;;-0.02;78.56;96011.38;5044958;28;20048;-89
2023/01/20 11:37:17;;;;;;;19.35;10.48;;;;;;;-0.44;79.87;96012.19;5052743;28;20041;-86
2023/01/20 11:39:59;;;;;;;21.35;12.18;;;;;;;-0.14;80.59;96008.91;5040231;28;20095;-86
2023/01/20 11:42:27;;;;;;;18.75;11.05;;;;;;;-0.19;80.23;96005.41;5037222;28;20060;-89
2023/01/20 11:44:56;;;;;;;17.67;10.68;;;;;;;-0.17;80.50;96011.28;5048048;28;20494;-85
2023/01/20 11:47:24;;;;;;;23.40;12.07;;;;;;;-0.18;82.40;96012.34;5042999;28;20069;-87